Airfield :
LOGIN :

Register | Disclaimer

   EN    FR    IT 

 










Legend :    VFR   Marginal VFR   IFR   Intensive IFR   Very Intensive IFR
Visi :
Ceiling :
>= 8 km
>= 3000ft
5 to 8 km
1000 to 3000 ft
1500m to 5 km
500 to 1000 ft
800 to 1500m
200 to 500 ft
< 800m
< 200 ft
Symbols :   Thunderstorms  Fog  Heavy snow  Heavy precipitations  Wind > 20 kt
SIGMETs :     Misc.  Thunderstorms  Icing  Turbulence  Mountain Waves  Volcanic Ashes







- Airport Elevation : 20 ft
- IATA code : OBN
- Download approach charts


EGEO - Oban

CURRENT METAR :
  • 251020Z 23012KT 90000 -SHRA FEW016 SCT027 SCT035 09/06 Q1003

EXPIRED METARs :
  • 250950Z 23012KT 9999 VCSH FEW019 SCT028 08/05 Q1003
  • 250920Z 23014KT 9999 FEW019 SCT028 07/05 Q1002
  • 250750Z 22011KT 9000 -SHRA FEW017 SCT023 BKN043 08/06 Q1002

TAF TAF EGEO
Valid from the 25 at 09:00 until the 25 at 17:00 UTC


250754Z 2509/2517 21009KT 9999 FEW015 SCT025
PROB30
TEMPO 2509/2517 6000 SHRA BKN014
No reported NOTAMs for that airfield.



MET'MAP, your aeronautical weather chart ! - Copyright ORBIFLY December 2007 - Disclaimer

ORBIFLY MET'MAP TEAM :

Programming & Development : Alexandra Zaïnal
Concept & Development : Baudouin d'Aumeries
Co-Development & Prog : Marc-Olivier Méhu
Technical & hardware support : Manuel Goepfert

Contact : metmap@orbifly.com




SOURCES & CREDITS :

   NOAA